Time;durP1;ratioP1;P1;durP2;ratioP2;P2;SDS_P1;SDS_P2;PMS_P1;PMS_P2;Temp;Humidity;BMP_temperature;BMP_pressure;BME280_temperature;BME280_humidity;BME280_pressure;Samples;Min_cycle;Max_cycle;Signal;HPM_P1;HPM_P2
2022/06/01 00:01:29;;;;;;;13.75;12.50;;;10.40;99.90;;;;;;5032107;28;20518;-74
2022/06/01 00:03:55;;;;;;;13.75;12.40;;;10.30;99.90;;;;;;5011450;28;20044;-74
2022/06/01 00:06:21;;;;;;;13.70;12.50;;;10.30;99.90;;;;;;5008950;28;20033;-74
2022/06/01 00:08:47;;;;;;;12.90;11.80;;;10.20;99.90;;;;;;5013540;28;20033;-74
2022/06/01 00:11:13;;;;;;;12.73;11.52;;;10.20;99.90;;;;;;5013414;28;20167;-73
2022/06/01 00:13:41;;;;;;;12.65;11.55;;;10.30;99.90;;;;;;5043783;28;20475;-73
2022/06/01 00:16:07;;;;;;;12.80;11.70;;;10.30;99.90;;;;;;5020136;28;20038;-74
2022/06/01 00:18:34;;;;;;;13.07;11.88;;;10.30;99.90;;;;;;5013394;28;20163;-73
2022/06/01 00:20:59;;;;;;;12.93;11.70;;;10.40;99.90;;;;;;4998048;28;20517;-74
2022/06/01 00:23:26;;;;;;;12.90;11.70;;;10.40;99.90;;;;;;5024375;28;20053;-74
2022/06/01 00:25:52;;;;;;;12.95;11.65;;;10.40;99.90;;;;;;5046445;28;20056;-74
2022/06/01 00:28:18;;;;;;;12.63;11.43;;;10.40;99.90;;;;;;5023188;28;20095;-74
2022/06/01 00:30:44;;;;;;;12.07;11.07;;;10.40;99.90;;;;;;5036489;28;20041;-74
2022/06/01 00:33:10;;;;;;;13.25;11.73;;;10.40;99.90;;;;;;5027060;28;20072;-74
2022/06/01 00:35:35;;;;;;;12.80;11.60;;;10.40;99.90;;;;;;5011307;28;20034;-74
2022/06/01 00:38:01;;;;;;;14.05;12.65;;;10.50;99.90;;;;;;5016159;28;20091;-73
2022/06/01 00:40:28;;;;;;;12.48;11.38;;;10.50;99.90;;;;;;5012655;28;20033;-74
2022/06/01 00:42:57;;;;;;;14.43;13.02;;;10.50;99.90;;;;;;5023130;28;20071;-74
2022/06/01 00:45:25;;;;;;;14.88;13.38;;;10.50;99.90;;;;;;5029937;28;20041;-74
2022/06/01 00:47:52;;;;;;;13.63;12.30;;;10.60;99.90;;;;;;5000637;28;20037;-74
2022/06/01 00:50:39;;;;;;;13.52;12.27;;;10.50;99.90;;;;;;5015418;28;20037;-74
2022/06/01 00:53:16;;;;;;;14.13;12.77;;;10.60;99.90;;;;;;5005394;28;20514;-74
2022/06/01 00:55:48;;;;;;;13.68;12.48;;;10.60;99.90;;;;;;5003766;28;20041;-74
2022/06/01 00:58:25;;;;;;;14.18;12.82;;;10.60;99.90;;;;;;5013199;28;20100;-74
2022/06/01 01:00:52;;;;;;;14.23;12.82;;;10.60;99.90;;;;;;4999324;28;20045;-74
2022/06/01 01:03:20;;;;;;;13.30;12.05;;;10.60;99.90;;;;;;5011164;28;20049;-72
2022/06/01 01:06:19;;;;;;;13.23;12.00;;;10.60;99.90;;;;;;5008310;28;20045;-73
2022/06/01 01:08:48;;;;;;;14.02;12.63;;;10.60;99.90;;;;;;4997797;28;20513;-74
2022/06/01 01:11:16;;;;;;;14.43;13.00;;;10.60;99.90;;;;;;5013808;28;20487;-74
2022/06/01 01:13:45;;;;;;;14.52;13.23;;;10.60;99.90;;;;;;4998308;28;20044;-74
2022/06/01 01:16:12;;;;;;;14.10;12.90;;;10.60;99.90;;;;;;5005593;28;20045;-74
2022/06/01 01:18:41;;;;;;;14.05;12.65;;;10.60;99.90;;;;;;5011794;28;20049;-73
2022/06/01 01:21:28;;;;;;;14.02;12.65;;;10.60;99.90;;;;;;4991661;28;20147;-74
2022/06/01 01:24:15;;;;;;;14.30;12.90;;;10.60;99.90;;;;;;4990979;28;20048;-74
2022/06/01 01:26:48;;;;;;;14.52;13.23;;;10.60;99.90;;;;;;5010470;28;20072;-74
2022/06/01 01:29:15;;;;;;;15.27;13.70;;;10.50;99.90;;;;;;5022552;28;20053;-73
2022/06/01 01:31:43;;;;;;;15.05;13.65;;;10.60;99.90;;;;;;5008426;28;20041;-74
2022/06/01 01:34:09;;;;;;;14.80;13.43;;;10.50;99.90;;;;;;4994170;28;20132;-74
2022/06/01 01:36:57;;;;;;;14.77;13.48;;;10.60;99.90;;;;;;5011867;28;20034;-74
2022/06/01 01:39:24;;;;;;;13.93;12.73;;;10.60;99.90;;;;;;5000006;28;20049;-74
2022/06/01 01:41:52;;;;;;;14.20;12.90;;;10.50;99.90;;;;;;5012195;28;20052;-74
2022/06/01 01:44:47;;;;;;;12.80;11.52;;;10.60;99.90;;;;;;5011627;28;20076;-73
2022/06/01 01:47:13;;;;;;;14.20;12.90;;;10.50;99.90;;;;;;5031098;28;20073;-73
2022/06/01 01:49:41;;;;;;;14.43;13.02;;;10.60;99.90;;;;;;5046667;28;20207;-73
2022/06/01 01:52:13;;;;;;;14.13;12.82;;;10.50;99.90;;;;;;4996083;28;20045;-74
2022/06/01 01:54:54;;;;;;;14.77;13.32;;;10.50;99.90;;;;;;5026190;28;20061;-74
2022/06/01 01:57:37;;;;;;;13.60;12.50;;;10.50;99.90;;;;;;5012359;28;20053;-74
2022/06/01 02:00:14;;;;;;;13.00;11.90;;;10.50;99.90;;;;;;5008656;28;20049;-72
2022/06/01 02:02:54;;;;;;;14.15;12.85;;;10.50;99.90;;;;;;5030748;28;20136;-73
2022/06/01 02:08:37;;;;;;;15.13;13.73;;;10.50;99.90;;;;;;5009979;28;20051;-74
2022/06/01 02:14:01;;;;;;;15.27;13.80;;;10.40;99.90;;;;;;5008288;28;20050;-74
2022/06/01 02:16:31;;;;;;;15.20;13.75;;;10.40;99.90;;;;;;5028719;28;20041;-74
2022/06/01 02:18:59;;;;;;;16.00;14.45;;;10.30;99.90;;;;;;5021976;28;20057;-75
2022/06/01 02:21:27;;;;;;;15.68;14.27;;;10.30;99.90;;;;;;5019278;28;20513;-74
2022/06/01 02:23:55;;;;;;;14.90;13.50;;;10.30;99.90;;;;;;5011758;28;20057;-74
2022/06/01 02:26:21;;;;;;;15.20;13.88;;;10.30;99.90;;;;;;5010500;28;20042;-74
2022/06/01 02:28:48;;;;;;;16.80;15.20;;;10.40;99.90;;;;;;5011359;28;20045;-74
2022/06/01 02:31:15;;;;;;;17.75;15.95;;;10.40;99.90;;;;;;5033235;28;20123;-74
2022/06/01 02:33:44;;;;;;;15.57;14.13;;;10.30;99.90;;;;;;5015918;28;20033;-74
2022/06/01 02:36:14;;;;;;;16.38;14.88;;;10.30;99.90;;;;;;5031257;28;20123;-74
2022/06/01 02:38:43;;;;;;;14.35;13.15;;;10.40;99.90;;;;;;5030058;28;20033;-74
2022/06/01 02:42:25;;;;;;;16.60;15.02;;;10.40;99.90;;;;;;5023772;28;20403;-74
2022/06/01 02:43:55;;;;;;;15.57;14.18;;;10.30;99.90;;;;;;5017455;28;20056;-74
2022/06/01 02:46:21;;;;;;;16.00;14.48;;;10.30;99.90;;;;;;5014322;28;20029;-74
2022/06/01 02:48:47;;;;;;;14.98;13.57;;;10.30;99.90;;;;;;5014143;28;20055;-74
2022/06/01 02:51:14;;;;;;;15.88;14.48;;;10.30;99.90;;;;;;5014746;28;20455;-74
2022/06/01 02:53:39;;;;;;;14.55;13.35;;;10.30;99.90;;;;;;5020557;28;20049;-74
2022/06/01 02:56:05;;;;;;;15.40;14.07;;;10.30;99.90;;;;;;4997338;28;20132;-74
2022/06/01 02:58:31;;;;;;;16.10;14.55;;;10.30;99.90;;;;;;5017586;28;20045;-75
2022/06/01 03:00:58;;;;;;;15.65;14.25;;;10.30;99.90;;;;;;5013331;28;20037;-74
2022/06/01 03:03:25;;;;;;;16.85;15.15;;;10.30;99.90;;;;;;5014363;28;20045;-74
2022/06/01 03:05:50;;;;;;;16.80;15.23;;;10.30;99.90;;;;;;5032003;28;20037;-74
2022/06/01 03:08:16;;;;;;;17.75;16.15;;;10.20;99.90;;;;;;5011543;28;20684;-75
2022/06/01 03:10:44;;;;;;;15.98;14.38;;;10.30;99.90;;;;;;5019443;28;20100;-75
2022/06/01 03:13:10;;;;;;;15.73;14.18;;;10.30;99.90;;;;;;5025757;28;20049;-75
2022/06/01 03:15:36;;;;;;;16.45;15.07;;;10.30;99.90;;;;;;5020844;28;20546;-75
2022/06/01 03:18:02;;;;;;;16.65;15.13;;;10.30;99.90;;;;;;5000323;28;20201;-74
2022/06/01 03:20:28;;;;;;;17.17;15.55;;;10.30;99.90;;;;;;5036752;28;20398;-74
2022/06/01 03:22:55;;;;;;;16.98;15.48;;;10.30;99.90;;;;;;5013010;28;20554;-74
2022/06/01 03:25:22;;;;;;;16.33;14.93;;;10.30;99.90;;;;;;5017524;28;20041;-74
2022/06/01 03:27:49;;;;;;;17.33;15.52;;;10.30;99.90;;;;;;5014258;28;20053;-74
2022/06/01 03:30:17;;;;;;;16.75;15.30;;;10.30;99.90;;;;;;5014086;28;20406;-74
2022/06/01 03:32:44;;;;;;;17.40;15.55;;;10.30;99.90;;;;;;5016952;28;20048;-75
2022/06/01 03:35:10;;;;;;;17.77;15.63;;;10.30;99.90;;;;;;5018527;28;20076;-75
2022/06/01 03:37:36;;;;;;;16.75;15.30;;;10.30;99.90;;;;;;5016683;28;20060;-73
2022/06/01 03:40:03;;;;;;;16.60;15.07;;;10.30;99.90;;;;;;5013812;28;20037;-74
2022/06/01 03:42:30;;;;;;;17.63;16.02;;;10.30;99.90;;;;;;5011736;28;20099;-74
2022/06/01 03:47:41;;;;;;;18.40;15.77;;;10.30;99.90;;;;;;5012860;28;20479;-74
2022/06/01 03:50:08;;;;;;;18.48;16.58;;;10.30;99.90;;;;;;5011167;28;20049;-74
2022/06/01 03:52:34;;;;;;;18.83;16.92;;;10.30;99.90;;;;;;5014993;28;20045;-74
2022/06/01 03:55:00;;;;;;;19.15;17.35;;;10.30;99.90;;;;;;4996351;28;20046;-74
2022/06/01 03:57:25;;;;;;;18.75;17.13;;;10.30;99.90;;;;;;5016296;28;20132;-74
2022/06/01 03:59:51;;;;;;;19.15;17.30;;;10.30;99.90;;;;;;5013412;28;20124;-74
2022/06/01 04:02:17;;;;;;;19.45;17.63;;;10.40;99.90;;;;;;5014123;28;20674;-74
2022/06/01 04:04:42;;;;;;;19.52;17.83;;;10.40;99.90;;;;;;5019994;28;20049;-74
2022/06/01 04:07:08;;;;;;;20.35;18.17;;;10.40;99.90;;;;;;5012967;28;20533;-74
2022/06/01 04:09:33;;;;;;;20.42;18.63;;;10.50;99.90;;;;;;5014809;28;20045;-74
2022/06/01 04:11:59;;;;;;;21.15;19.15;;;10.50;99.90;;;;;;5019199;28;20049;-74
2022/06/01 04:14:25;;;;;;;20.90;18.88;;;10.60;99.90;;;;;;5036862;28;20049;-74
2022/06/01 04:16:51;;;;;;;20.92;19.10;;;10.60;99.90;;;;;;5031234;28;20053;-74
2022/06/01 04:19:17;;;;;;;21.20;19.23;;;10.60;99.90;;;;;;5011946;28;20055;-75
2022/06/01 04:21:47;;;;;;;21.98;19.88;;;10.70;99.90;;;;;;5022451;28;20049;-74
2022/06/01 04:24:16;;;;;;;21.48;19.58;;;10.70;99.90;;;;;;5017076;28;20033;-74
2022/06/01 04:26:42;;;;;;;21.95;19.85;;;10.70;99.90;;;;;;5012232;28;20052;-74
2022/06/01 04:29:08;;;;;;;21.35;19.30;;;10.70;99.90;;;;;;5016748;28;20088;-74
2022/06/01 04:31:35;;;;;;;21.67;19.55;;;10.70;99.90;;;;;;5030889;28;20040;-74
2022/06/01 04:34:01;;;;;;;20.13;18.23;;;10.80;99.90;;;;;;5047677;28;20085;-74
2022/06/01 04:36:26;;;;;;;22.30;20.23;;;10.80;99.90;;;;;;5012757;28;20036;-74
2022/06/01 04:38:52;;;;;;;21.85;19.95;;;10.80;99.90;;;;;;5036325;28;20060;-75
2022/06/01 04:41:18;;;;;;;22.27;20.27;;;10.90;99.90;;;;;;5011488;28;20509;-73
2022/06/01 04:43:43;;;;;;;22.30;20.30;;;10.90;99.90;;;;;;5023863;28;20052;-73
2022/06/01 04:46:10;;;;;;;22.27;20.33;;;10.90;99.90;;;;;;5039396;28;20060;-74
2022/06/01 04:48:35;;;;;;;22.27;20.42;;;11.00;99.90;;;;;;5012672;28;20478;-74
2022/06/01 04:51:01;;;;;;;21.98;19.95;;;11.00;99.90;;;;;;5018873;28;20120;-74
2022/06/01 04:53:27;;;;;;;23.42;21.23;;;11.10;99.90;;;;;;5036517;28;20053;-74
2022/06/01 04:55:54;;;;;;;21.80;19.55;;;11.10;99.90;;;;;;5013902;28;20076;-74
2022/06/01 04:58:19;;;;;;;21.88;19.98;;;11.20;99.90;;;;;;5005082;28;20045;-74
2022/06/01 05:00:46;;;;;;;23.77;21.63;;;11.40;99.90;;;;;;5013258;28;20052;-74
2022/06/01 05:03:12;;;;;;;22.83;20.77;;;11.50;99.90;;;;;;5027784;28;20060;-74
2022/06/01 05:05:39;;;;;;;22.50;20.52;;;11.60;99.90;;;;;;5045621;28;20041;-74
2022/06/01 05:08:06;;;;;;;22.63;20.23;;;11.70;99.90;;;;;;5029661;23;20115;-74
2022/06/01 05:10:33;;;;;;;21.13;19.23;;;11.80;99.90;;;;;;5006168;28;20057;-74
2022/06/01 05:12:59;;;;;;;21.40;19.40;;;11.90;99.90;;;;;;5007509;28;20058;-73
2022/06/01 05:15:24;;;;;;;22.92;20.92;;;11.90;99.90;;;;;;4988885;28;20045;-75
2022/06/01 05:17:50;;;;;;;21.70;19.73;;;12.00;99.90;;;;;;4998922;28;20046;-75
2022/06/01 05:20:16;;;;;;;22.30;20.15;;;12.00;99.90;;;;;;5004860;28;20034;-74
2022/06/01 05:22:42;;;;;;;36.85;19.50;;;12.00;99.90;;;;;;4984223;28;20045;-74
2022/06/01 05:25:08;;;;;;;20.70;18.90;;;12.00;99.90;;;;;;5003794;28;20065;-74
2022/06/01 05:27:35;;;;;;;19.98;18.20;;;12.10;99.90;;;;;;5009408;28;20447;-74
2022/06/01 05:30:00;;;;;;;21.08;19.17;;;12.00;99.90;;;;;;4989523;28;20538;-74
2022/06/01 05:32:27;;;;;;;22.77;20.77;;;12.00;99.90;;;;;;4993447;28;20046;-75
2022/06/01 05:34:53;;;;;;;20.13;18.42;;;12.00;99.90;;;;;;5006450;28;20112;-75
2022/06/01 05:37:19;;;;;;;21.05;19.20;;;12.10;99.90;;;;;;4988459;28;20034;-75
2022/06/01 05:39:44;;;;;;;20.60;18.80;;;12.00;99.90;;;;;;5004379;28;20229;-74
2022/06/01 05:42:11;;;;;;;21.90;19.73;;;12.00;99.90;;;;;;4999145;28;20380;-73
2022/06/01 05:44:36;;;;;;;21.85;19.85;;;12.10;99.90;;;;;;5008085;28;20538;-75
2022/06/01 05:47:03;;;;;;;21.52;19.55;;;12.10;99.90;;;;;;5000330;28;20046;-75
2022/06/01 05:49:29;;;;;;;18.95;17.27;;;12.10;99.90;;;;;;5006788;28;20038;-75
2022/06/01 05:51:55;;;;;;;22.02;20.13;;;12.10;99.90;;;;;;5010119;28;20054;-75
2022/06/01 05:54:21;;;;;;;20.92;18.90;;;12.10;99.90;;;;;;4986772;28;20049;-74
2022/06/01 05:56:47;;;;;;;20.67;18.98;;;12.10;99.90;;;;;;5007255;28;20045;-74
2022/06/01 05:59:14;;;;;;;20.95;19.15;;;12.20;99.90;;;;;;5008399;28;20038;-74
2022/06/01 06:01:40;;;;;;;20.75;18.95;;;12.20;99.90;;;;;;5012236;28;20088;-74
2022/06/01 06:04:06;;;;;;;20.80;19.10;;;12.20;99.90;;;;;;5005929;28;20037;-77
2022/06/01 06:06:32;;;;;;;20.65;18.85;;;12.20;99.90;;;;;;5010293;28;20531;-77
2022/06/01 06:09:09;;;;;;;20.13;18.45;;;12.30;99.90;;;;;;4997434;28;20553;-77
2022/06/01 06:11:37;;;;;;;21.17;19.27;;;12.40;99.90;;;;;;4994296;28;20534;-77
2022/06/01 06:14:05;;;;;;;19.70;18.10;;;12.40;99.90;;;;;;5011128;28;20041;-77
2022/06/01 06:16:34;;;;;;;18.95;17.25;;;12.40;99.90;;;;;;5018770;28;20041;-77
2022/06/01 06:19:01;;;;;;;17.60;15.93;;;12.40;99.90;;;;;;5013840;28;20045;-77
2022/06/01 06:21:29;;;;;;;20.42;18.65;;;12.40;99.90;;;;;;5005828;28;20045;-77
2022/06/01 06:24:06;;;;;;;19.60;17.90;;;12.40;99.90;;;;;;5007929;28;20422;-77
2022/06/01 06:26:32;;;;;;;19.83;18.13;;;12.40;99.90;;;;;;4994105;28;20045;-77
2022/06/01 06:29:01;;;;;;;19.17;17.58;;;12.50;99.90;;;;;;5008449;28;20045;-78
2022/06/01 06:31:26;;;;;;;20.73;18.92;;;12.50;99.90;;;;;;5003095;28;20046;-78
2022/06/01 06:33:52;;;;;;;18.80;17.25;;;12.50;99.90;;;;;;5007169;28;20038;-76
2022/06/01 06:36:18;;;;;;;17.08;15.60;;;12.60;99.90;;;;;;5009752;28;20491;-78
2022/06/01 06:38:43;;;;;;;15.10;13.70;;;12.70;99.90;;;;;;5007661;28;20034;-77
2022/06/01 06:41:12;;;;;;;16.92;15.38;;;12.80;99.90;;;;;;5011954;28;20076;-77
2022/06/01 06:43:40;;;;;;;13.98;12.68;;;12.90;99.90;;;;;;5007905;28;20415;-77
2022/06/01 06:46:15;;;;;;;15.68;14.35;;;12.90;99.90;;;;;;5010906;28;20053;-77
2022/06/01 06:48:42;;;;;;;16.27;14.63;;;12.90;99.90;;;;;;4996909;28;20095;-78
2022/06/01 06:51:08;;;;;;;29.13;14.43;;;13.00;99.90;;;;;;5012287;28;20120;-77
2022/06/01 06:53:34;;;;;;;14.13;12.93;;;13.10;99.90;;;;;;5012870;28;20072;-76
2022/06/01 06:56:00;;;;;;;14.60;13.40;;;13.20;99.90;;;;;;4998182;28;20520;-76
2022/06/01 06:58:26;;;;;;;14.80;13.40;;;13.20;99.90;;;;;;5007666;28;20073;-76
2022/06/01 07:00:52;;;;;;;12.80;11.80;;;13.30;99.90;;;;;;5011940;28;20070;-76
2022/06/01 07:03:18;;;;;;;12.52;11.52;;;13.40;99.90;;;;;;5006720;28;20099;-77
2022/06/01 07:08:29;;;;;;;12.88;11.68;;;13.60;99.90;;;;;;5011301;28;20399;-77
2022/06/01 07:10:56;;;;;;;13.38;12.27;;;13.70;99.90;;;;;;4991658;28;20065;-77
2022/06/01 07:13:22;;;;;;;13.10;12.00;;;13.80;99.90;;;;;;5011027;28;20407;-77
2022/06/01 07:15:48;;;;;;;13.02;11.93;;;14.00;99.90;;;;;;5010494;28;20049;-77
2022/06/01 07:18:14;;;;;;;14.00;12.80;;;14.10;99.90;;;;;;5007103;28;20110;-77
2022/06/01 07:20:40;;;;;;;13.57;12.45;;;14.30;99.90;;;;;;5009205;28;20464;-77
2022/06/01 07:23:06;;;;;;;14.15;12.80;;;14.40;99.90;;;;;;5007554;28;20088;-77
2022/06/01 07:25:32;;;;;;;13.55;12.40;;;14.50;99.90;;;;;;5010876;28;20057;-77
2022/06/01 07:27:58;;;;;;;13.75;12.60;;;14.60;99.90;;;;;;4995865;28;20038;-77
2022/06/01 07:30:24;;;;;;;14.52;13.20;;;14.80;99.90;;;;;;5012211;28;20064;-77
2022/06/01 07:32:50;;;;;;;15.05;13.55;;;15.20;99.90;;;;;;5011391;28;20048;-76
2022/06/01 07:35:17;;;;;;;15.23;13.77;;;15.70;99.90;;;;;;5010562;28;20042;-75
2022/06/01 07:43:16;;;;;;;15.40;14.00;;;15.60;99.90;;;;;;5001787;28;20484;-75
2022/06/01 07:45:44;;;;;;;15.43;14.10;;;15.50;99.90;;;;;;4985962;28;20053;-76
2022/06/01 07:48:10;;;;;;;14.25;13.05;;;15.30;99.90;;;;;;5005707;28;20049;-76
2022/06/01 07:50:36;;;;;;;15.07;13.68;;;15.20;99.90;;;;;;4993527;28;20038;-75
2022/06/01 07:53:05;;;;;;;15.18;13.93;;;15.20;99.90;;;;;;4989592;28;20065;-76
2022/06/01 07:55:30;;;;;;;14.35;13.15;;;15.10;99.90;;;;;;4997358;28;20133;-76
2022/06/01 07:57:56;;;;;;;11.45;10.55;;;15.00;99.90;;;;;;5005658;28;20144;-76
2022/06/01 08:00:22;;;;;;;13.68;12.48;;;15.10;99.90;;;;;;5005857;28;20042;-76
2022/06/01 08:02:48;;;;;;;13.13;11.85;;;15.10;99.90;;;;;;4993327;28;20050;-76
2022/06/01 08:05:18;;;;;;;11.35;10.35;;;15.10;99.90;;;;;;5006174;28;20042;-76
2022/06/01 08:07:44;;;;;;;12.43;11.35;;;15.20;99.90;;;;;;5010241;28;20042;-75
2022/06/01 08:10:13;;;;;;;13.80;12.60;;;15.20;99.90;;;;;;5009196;28;20046;-76
2022/06/01 08:15:23;;;;;;;12.07;11.07;;;15.10;99.90;;;;;;5010970;28;20049;-75
2022/06/01 08:17:49;;;;;;;12.25;11.13;;;15.10;99.90;;;;;;5005901;28;20376;-75
2022/06/01 08:20:16;;;;;;;11.90;10.88;;;15.10;99.90;;;;;;5014542;28;20033;-76
2022/06/01 08:22:42;;;;;;;9.45;8.65;;;15.10;99.90;;;;;;5010638;28;20052;-76
2022/06/01 08:25:10;;;;;;;9.82;9.02;;;15.10;99.90;;;;;;4998072;28;20041;-75
2022/06/01 08:27:36;;;;;;;12.55;11.40;;;15.10;99.90;;;;;;5009846;28;20037;-75
2022/06/01 08:30:03;;;;;;;10.95;10.05;;;15.10;99.90;;;;;;5005534;28;20037;-77
2022/06/01 08:32:29;;;;;;;9.80;8.95;;;15.10;99.90;;;;;;4990743;28;20045;-76
2022/06/01 08:34:54;;;;;;;24.25;9.93;;;15.00;99.90;;;;;;5001110;28;20038;-76
2022/06/01 08:37:20;;;;;;;9.23;8.05;;;14.80;99.90;;;;;;5001775;28;20474;-76
2022/06/01 08:39:45;;;;;;;6.82;5.90;;;14.70;99.90;;;;;;5012217;28;20060;-76
2022/06/01 08:42:15;;;;;;;4.75;4.25;;;14.50;99.90;;;;;;5010596;28;20120;-75
2022/06/01 08:44:43;;;;;;;5.00;4.50;;;14.30;99.90;;;;;;5009177;28;20100;-73
2022/06/01 08:47:24;;;;;;;3.60;3.30;;;14.10;99.90;;;;;;5008362;28;20045;-74
2022/06/01 08:49:50;;;;;;;4.63;3.20;;;13.90;99.90;;;;;;5011069;28;20041;-75
2022/06/01 08:52:15;;;;;;;3.53;3.10;;;13.80;99.90;;;;;;5009079;28;20063;-73
2022/06/01 08:54:41;;;;;;;3.20;2.90;;;13.80;99.90;;;;;;4996642;28;20556;-73
2022/06/01 08:57:12;;;;;;;3.05;2.85;;;13.90;99.90;;;;;;4994110;28;20033;-74
2022/06/01 09:00:08;;;;;;;2.85;2.58;;;14.00;99.90;;;;;;4999897;28;20033;-74
2022/06/01 09:02:35;;;;;;;3.95;2.80;;;14.20;99.90;;;;;;5010760;28;20083;-74
2022/06/01 09:05:12;;;;;;;4.68;3.00;;;14.40;99.90;;;;;;5004876;28;20041;-75
2022/06/01 09:08:03;;;;;;;3.13;2.92;;;14.80;99.90;;;;;;5009753;28;20045;-74
2022/06/01 09:10:57;;;;;;;3.22;2.92;;;15.00;99.90;;;;;;5005034;28;20096;-75
2022/06/01 09:13:33;;;;;;;4.03;3.58;;;15.40;99.90;;;;;;5005210;28;20360;-75
2022/06/01 09:16:03;;;;;;;4.03;3.72;;;15.80;99.90;;;;;;4994046;28;20049;-75
2022/06/01 09:18:40;;;;;;;3.95;3.50;;;16.20;99.90;;;;;;5012620;28;20048;-75
2022/06/01 09:24:03;;;;;;;5.82;3.72;;;16.80;99.90;;;;;;5000995;28;20585;-75
2022/06/01 09:26:29;;;;;;;4.60;3.75;;;17.00;99.90;;;;;;4980852;28;20041;-75
2022/06/01 09:28:58;;;;;;;4.88;4.28;;;17.00;99.90;;;;;;5022425;28;20403;-74
2022/06/01 09:31:35;;;;;;;5.38;4.40;;;16.70;99.90;;;;;;5006455;28;20166;-74
2022/06/01 09:34:27;;;;;;;5.28;4.03;;;16.50;99.90;;;;;;5006942;28;20499;-74
2022/06/01 09:37:05;;;;;;;5.55;4.57;;;16.30;99.90;;;;;;5000419;28;20073;-74
2022/06/01 09:39:31;;;;;;;4.97;4.47;;;16.10;99.90;;;;;;5005041;28;20088;-74
2022/06/01 09:42:30;;;;;;;4.25;3.78;;;16.00;99.90;;;;;;5012355;28;20048;-74
2022/06/01 09:44:58;;;;;;;3.65;3.35;;;16.00;99.90;;;;;;4988804;28;20060;-74
2022/06/01 09:47:36;;;;;;;5.38;3.67;;;16.20;99.90;;;;;;5002632;28;20033;-74
2022/06/01 09:50:05;;;;;;;5.90;4.15;;;16.20;99.90;;;;;;5006288;28;20060;-74
2022/06/01 09:52:35;;;;;;;3.92;3.45;;;16.30;99.90;;;;;;5028390;28;20045;-73
2022/06/01 09:55:16;;;;;;;4.30;3.90;;;16.00;99.90;;;;;;5004783;28;20046;-73
2022/06/01 09:57:43;;;;;;;4.23;3.83;;;16.00;99.90;;;;;;5007100;28;20052;-73
2022/06/01 10:06:31;;;;;;;4.10;3.80;;;16.30;99.90;;;;;;5007733;28;20049;-73
2022/06/01 10:09:00;;;;;;;4.10;3.65;;;16.40;99.90;;;;;;5005288;28;20132;-74
2022/06/01 10:11:33;;;;;;;4.00;3.70;;;16.40;99.90;;;;;;5005644;28;20049;-73
2022/06/01 10:14:18;;;;;;;3.97;3.55;;;16.40;99.90;;;;;;5008891;28;20045;-74
2022/06/01 10:16:53;;;;;;;5.45;4.25;;;16.60;99.90;;;;;;5004676;28;20104;-73
2022/06/01 10:19:35;;;;;;;4.00;3.70;;;17.10;99.90;;;;;;5008837;28;20071;-74
2022/06/01 10:22:17;;;;;;;4.05;3.65;;;17.70;99.90;;;;;;5011265;28;20139;-73
2022/06/01 10:24:56;;;;;;;4.28;3.97;;;18.20;99.90;;;;;;5000298;28;20049;-73
2022/06/01 10:27:28;;;;;;;3.80;3.50;;;18.50;99.90;;;;;;5010474;28;20452;-73
2022/06/01 10:30:06;;;;;;;3.53;3.22;;;18.60;99.90;;;;;;5011311;28;20041;-73
2022/06/01 10:32:47;;;;;;;4.90;4.43;;;18.80;99.90;;;;;;5007506;28;20120;-74
2022/06/01 10:35:57;;;;;;;4.63;4.22;;;18.50;99.80;;;;;;4999460;28;20044;-75
2022/06/01 10:39:00;;;;;;;5.28;4.88;;;18.10;99.90;;;;;;4966069;28;20361;-76
2022/06/01 10:41:36;;;;;;;4.90;4.50;;;17.60;99.90;;;;;;5010481;28;20064;-76
2022/06/01 10:44:09;;;;;;;5.25;4.85;;;17.30;99.90;;;;;;5011723;28;20045;-75
2022/06/01 10:46:49;;;;;;;4.93;4.47;;;16.90;99.90;;;;;;5008855;28;20099;-74
2022/06/01 10:49:39;;;;;;;5.45;4.97;;;16.80;99.90;;;;;;5008830;28;20045;-76
2022/06/01 10:52:31;;;;;;;5.40;5.00;;;16.60;99.90;;;;;;5024113;28;20045;-75
2022/06/01 10:55:28;;;;;;;5.80;5.30;;;16.50;99.90;;;;;;5011351;28;20045;-75
2022/06/01 10:57:57;;;;;;;6.50;6.00;;;16.40;99.90;;;;;;4988841;28;20030;-74
2022/06/01 11:00:29;;;;;;;5.53;5.10;;;16.40;99.90;;;;;;5014213;28;20037;-75
2022/06/01 11:03:05;;;;;;;;;;;16.60;99.90;;;;;;5009837;28;20045;-76
2022/06/01 11:06:12;;;;;;;4.57;3.75;;;16.80;99.90;;;;;;5015057;28;19920;-75
2022/06/01 11:08:51;;;;;;;3.67;3.20;;;16.90;99.90;;;;;;4920820;28;20060;-76
2022/06/01 11:11:29;;;;;;;4.75;4.35;;;16.90;99.90;;;;;;4918441;29;20131;-75
2022/06/01 11:14:04;;;;;;;4.97;4.57;;;16.80;99.90;;;;;;4983893;28;20140;-74
2022/06/01 11:16:58;;;;;;;5.57;5.05;;;16.70;99.90;;;;;;4990664;28;20054;-75
2022/06/01 11:19:56;;;;;;;2.47;2.15;;;16.40;99.90;;;;;;4986826;28;20061;-75
2022/06/01 11:22:25;;;;;;;1.55;1.20;;;15.80;99.90;;;;;;5012629;28;20048;-76
2022/06/01 11:25:13;;;;;;;1.27;0.77;;;15.10;99.90;;;;;;4985657;28;20038;-74
2022/06/01 11:27:49;;;;;;;3.47;0.80;;;14.70;99.90;;;;;;5009007;28;20042;-75
2022/06/01 11:30:20;;;;;;;0.50;0.50;;;14.50;99.90;;;;;;4994240;28;20089;-75
2022/06/01 11:33:06;;;;;;;1.50;0.73;;;14.10;99.90;;;;;;4993044;28;20042;-75
2022/06/01 11:35:44;;;;;;;0.85;0.55;;;13.70;99.90;;;;;;5004222;28;20048;-75
2022/06/01 11:38:16;;;;;;;1.08;0.95;;;13.50;99.90;;;;;;5004849;28;20061;-75
2022/06/01 11:41:09;;;;;;;0.93;0.50;;;13.30;99.90;;;;;;5004803;28;20100;-75
2022/06/01 11:43:41;;;;;;;0.70;0.50;;;13.30;99.90;;;;;;4987852;28;20042;-75
2022/06/01 11:46:23;;;;;;;0.50;0.50;;;13.30;99.90;;;;;;4989596;28;20124;-74
2022/06/01 11:48:57;;;;;;;0.88;0.63;;;13.40;99.90;;;;;;5004618;28;20192;-75
2022/06/01 11:51:44;;;;;;;4.88;0.70;;;13.50;99.90;;;;;;4990520;28;20042;-75
2022/06/01 11:54:11;;;;;;;2.25;0.60;;;13.60;99.90;;;;;;5008618;28;20042;-75
2022/06/01 11:56:45;;;;;;;0.55;0.50;;;13.70;99.90;;;;;;5001228;28;20084;-75
2022/06/01 11:59:33;;;;;;;0.70;0.60;;;14.10;99.90;;;;;;5004706;28;20045;-76
2022/06/01 12:02:04;;;;;;;2.15;0.98;;;14.50;99.90;;;;;;5010632;28;20128;-75
2022/06/01 12:04:49;;;;;;;0.50;0.50;;;15.00;99.90;;;;;;5010531;28;20593;-75
2022/06/01 12:07:22;;;;;;;2.20;0.80;;;15.50;99.90;;;;;;4993145;28;20304;-74
2022/06/01 12:10:06;;;;;;;1.52;1.10;;;16.20;99.90;;;;;;5021526;28;20045;-74
2022/06/01 12:12:34;;;;;;;0.90;0.85;;;16.20;99.90;;;;;;5010769;28;20050;-74
2022/06/01 12:15:24;;;;;;;0.98;0.98;;;16.60;99.90;;;;;;4989956;28;20062;-75
2022/06/01 12:18:29;;;;;;;0.70;0.50;;;17.00;99.90;;;;;;4997400;28;20061;-76
2022/06/01 12:21:20;;;;;;;0.93;0.60;;;17.00;99.90;;;;;;5000384;28;20054;-75
2022/06/01 12:28:31;;;;;;;0.60;0.60;;;17.70;99.90;;;;;;5010929;28;20050;-76
2022/06/01 12:29:59;;;;;;;0.98;0.82;;;17.80;99.90;;;;;;5010981;28;20054;-76
2022/06/01 12:32:26;;;;;;;1.23;1.10;;;18.00;99.90;;;;;;5009788;28;20038;-76
2022/06/01 12:35:10;;;;;;;1.67;1.58;;;18.20;99.90;;;;;;5004454;28;20048;-76
2022/06/01 12:37:45;;;;;;;3.03;2.30;;;18.40;99.40;;;;;;5011470;28;20034;-76
2022/06/01 12:40:18;;;;;;;2.60;2.40;;;18.50;99.90;;;;;;5011033;28;20248;-76
2022/06/01 12:42:57;;;;;;;2.85;2.65;;;18.50;99.50;;;;;;5011190;28;20034;-76
2022/06/01 12:45:38;;;;;;;3.60;3.35;;;18.40;99.50;;;;;;5011169;28;20488;-76
2022/06/01 12:48:23;;;;;;;3.53;3.22;;;18.40;99.50;;;;;;5008952;28;20368;-77
2022/06/01 12:51:01;;;;;;;4.38;4.07;;;18.30;99.50;;;;;;5007375;28;20068;-76
2022/06/01 12:53:49;;;;;;;3.80;3.50;;;18.30;99.60;;;;;;5003562;28;20042;-76
2022/06/01 12:56:16;;;;;;;3.45;3.15;;;18.30;99.90;;;;;;5002550;28;20043;-75
2022/06/01 12:58:43;;;;;;;3.22;2.90;;;18.00;99.70;;;;;;4987991;28;20480;-77
2022/06/01 13:01:09;;;;;;;1.33;1.23;;;17.40;99.90;;;;;;5002725;28;20029;-75
2022/06/01 13:03:43;;;;;;;1.70;0.77;;;17.00;99.90;;;;;;4999424;28;20464;-76
2022/06/01 13:06:12;;;;;;;0.60;0.60;;;16.80;98.80;;;;;;5007171;28;20140;-76
2022/06/01 13:08:39;;;;;;;0.77;0.65;;;16.80;99.90;;;;;;4984451;28;20061;-76
2022/06/01 13:11:32;;;;;;;1.02;0.60;;;16.70;99.90;;;;;;4991548;28;20037;-76
2022/06/01 13:14:09;;;;;;;1.13;0.52;;;16.60;99.90;;;;;;5000555;28;20088;-76
2022/06/01 13:16:43;;;;;;;3.13;0.60;;;16.50;99.90;;;;;;5003840;28;20163;-75
2022/06/01 13:19:27;;;;;;;0.40;0.40;;;16.30;99.90;;;;;;5001363;28;20125;-75
2022/06/01 13:22:16;;;;;;;0.38;0.30;;;16.20;99.90;;;;;;5009990;28;20124;-76
2022/06/01 13:24:59;;;;;;;0.30;0.30;;;16.00;99.90;;;;;;4996089;28;20045;-76
2022/06/01 13:27:35;;;;;;;1.23;0.82;;;15.70;99.90;;;;;;5009268;28;20162;-76